createdAt,value
2017-12-29T00:01:11.038Z,5.20
2017-12-29T00:03:40.127Z,9.60
2017-12-29T00:06:09.046Z,7.43
2017-12-29T00:08:37.928Z,8.50
2017-12-29T00:11:06.807Z,5.03
2017-12-29T00:13:35.786Z,5.93
2017-12-29T00:16:04.672Z,9.70
2017-12-29T00:27:28.790Z,7.07
2017-12-29T00:29:57.702Z,8.77
2017-12-29T00:32:26.597Z,11.63
2017-12-29T00:34:55.552Z,10.40
2017-12-29T00:37:25.223Z,8.53
2017-12-29T00:39:54.350Z,9.93
2017-12-29T00:42:23.265Z,5.67
2017-12-29T00:44:52.149Z,8.40
2017-12-29T00:50:42.068Z,11.57
2017-12-29T00:53:10.961Z,6.33
2017-12-29T00:55:39.829Z,8.60
2017-12-29T00:58:09.507Z,6.53
2017-12-29T01:00:38.049Z,12.67
2017-12-29T01:03:06.939Z,7.60
2017-12-29T01:05:35.842Z,7.63
2017-12-29T01:08:04.738Z,9.73
2017-12-29T01:10:33.628Z,8.20
2017-12-29T01:15:57.025Z,7.47
2017-12-29T01:18:25.919Z,7.37
2017-12-29T01:20:54.822Z,7.77
2017-12-29T01:23:23.723Z,7.33
2017-12-29T01:25:52.815Z,5.63
2017-12-29T01:28:21.705Z,7.07
2017-12-29T01:30:50.830Z,7.17
2017-12-29T01:33:19.725Z,9.53
2017-12-29T01:45:12.505Z,6.80
2017-12-29T01:48:00.419Z,6.37
2017-12-29T01:50:29.325Z,17.10
2017-12-29T01:52:58.239Z,11.37
2017-12-29T01:55:27.919Z,6.80
2017-12-29T01:57:56.794Z,6.47
2017-12-29T02:00:25.699Z,7.50
2017-12-29T02:02:54.615Z,4.80
2017-12-29T02:14:23.125Z,7.07
2017-12-29T02:16:52.039Z,4.97
2017-12-29T02:19:21.142Z,7.67
2017-12-29T02:21:50.249Z,7.60
2017-12-29T02:24:19.122Z,5.63
2017-12-29T02:26:48.035Z,8.53
2017-12-29T02:29:16.918Z,6.70
2017-12-29T02:31:45.805Z,4.93
2017-12-29T02:34:14.900Z,6.63
2017-12-29T02:36:43.789Z,6.00
2017-12-29T02:39:12.497Z,7.70
2017-12-29T02:41:41.405Z,6.30
2017-12-29T02:44:12.189Z,8.63
2017-12-29T02:46:40.885Z,11.77
2017-12-29T02:49:09.792Z,7.07
2017-12-29T02:51:38.682Z,6.30
2017-12-29T02:54:07.597Z,12.20
2017-12-29T02:56:36.495Z,8.90
2017-12-29T02:59:05.372Z,6.70
2017-12-29T03:01:34.268Z,9.53
2017-12-29T03:04:03.919Z,11.80
2017-12-29T03:06:32.825Z,10.73
2017-12-29T03:09:01.723Z,7.77
2017-12-29T03:11:30.603Z,7.23
2017-12-29T03:13:59.697Z,9.70
2017-12-29T03:16:28.603Z,5.70
2017-12-29T03:27:56.854Z,8.70
2017-12-29T03:30:26.516Z,6.33
2017-12-29T03:32:55.407Z,7.50
2017-12-29T03:35:24.300Z,7.13
2017-12-29T03:37:53.182Z,9.87
2017-12-29T03:40:22.063Z,10.37
2017-12-29T03:42:50.378Z,9.80
2017-12-29T03:45:19.492Z,4.77
2017-12-29T03:47:48.366Z,7.93
2017-12-29T03:53:36.668Z,4.03
2017-12-29T03:56:05.549Z,9.20
2017-12-29T03:58:34.445Z,10.20
2017-12-29T04:01:03.323Z,8.10
2017-12-29T04:03:32.212Z,9.77
2017-12-29T04:06:01.071Z,5.33
2017-12-29T04:08:29.949Z,2.80
2017-12-29T04:10:58.831Z,7.27
2017-12-29T04:13:27.723Z,8.80
2017-12-29T04:24:54.204Z,5.50
2017-12-29T04:27:23.079Z,9.13
2017-12-29T04:29:51.960Z,8.23
2017-12-29T04:32:20.851Z,6.10
2017-12-29T04:34:49.755Z,9.07
2017-12-29T04:37:18.626Z,8.50
2017-12-29T04:39:47.503Z,9.70
2017-12-29T04:42:16.376Z,12.67
2017-12-29T04:50:45.332Z,8.67
2017-12-29T04:53:14.224Z,7.37
2017-12-29T04:55:43.333Z,14.50
2017-12-29T04:58:12.211Z,9.43
2017-12-29T05:00:41.099Z,12.93
2017-12-29T05:03:09.986Z,11.70
2017-12-29T05:05:38.887Z,11.60
2017-12-29T05:08:07.782Z,14.23
2017-12-29T05:10:36.661Z,11.40
2017-12-29T05:24:59.935Z,15.07
2017-12-29T05:27:28.820Z,16.50
2017-12-29T05:29:57.718Z,17.67
2017-12-29T05:32:26.813Z,15.97
2017-12-29T05:34:55.700Z,14.60
2017-12-29T05:37:24.588Z,15.87
2017-12-29T05:39:53.471Z,13.10
2017-12-29T05:42:22.357Z,15.37
2017-12-29T05:54:12.979Z,14.13
2017-12-29T05:56:42.653Z,12.83
2017-12-29T05:59:11.749Z,16.23
2017-12-29T06:01:40.625Z,11.23
2017-12-29T06:04:09.525Z,11.33
2017-12-29T06:06:38.398Z,12.70
2017-12-29T06:09:07.290Z,13.30
2017-12-29T06:11:36.178Z,12.40
2017-12-29T06:14:05.070Z,11.13
2017-12-29T06:19:30.415Z,11.33
2017-12-29T06:21:59.316Z,15.50
2017-12-29T06:24:28.207Z,16.50
2017-12-29T06:26:57.087Z,13.83
2017-12-29T06:29:25.992Z,9.73
2017-12-29T06:31:54.877Z,10.77
2017-12-29T06:34:23.748Z,13.60
2017-12-29T06:36:52.649Z,14.83
2017-12-29T06:57:21.775Z,11.93
2017-12-29T06:59:50.648Z,15.10
2017-12-29T07:02:20.297Z,16.03
2017-12-29T07:04:49.192Z,18.13
2017-12-29T07:07:18.070Z,12.93
2017-12-29T07:09:46.980Z,14.80
2017-12-29T07:12:15.883Z,18.97
2017-12-29T07:14:44.778Z,15.37
2017-12-29T07:17:13.871Z,15.23
2017-12-29T07:19:42.772Z,16.43
2017-12-29T07:22:11.880Z,19.90
2017-12-29T07:24:40.764Z,16.30
2017-12-29T07:27:09.684Z,23.47
2017-12-29T07:29:38.636Z,20.00
2017-12-29T07:32:07.540Z,15.77
2017-12-29T07:34:36.416Z,21.40
2017-12-29T07:37:05.326Z,20.73
2017-12-29T07:39:34.213Z,20.27
2017-12-29T07:48:03.592Z,18.87
2017-12-29T07:50:33.400Z,19.90
2017-12-29T07:53:02.306Z,19.87
2017-12-29T07:55:31.197Z,16.50
2017-12-29T07:58:00.096Z,16.50
2017-12-29T08:00:28.997Z,19.43
2017-12-29T08:02:57.901Z,15.83
2017-12-29T08:05:26.795Z,20.97
2017-12-29T08:07:55.684Z,16.50
2017-12-29T08:16:34.096Z,18.70
2017-12-29T08:19:02.982Z,15.30
2017-12-29T08:21:31.873Z,13.13
2017-12-29T08:24:00.768Z,13.87
2017-12-29T08:26:29.711Z,14.70
2017-12-29T08:28:58.607Z,20.87
2017-12-29T08:31:27.498Z,17.53
2017-12-29T08:33:56.395Z,13.53
2017-12-29T08:36:25.926Z,17.40
2017-12-29T08:38:56.647Z,19.27
2017-12-29T08:41:25.559Z,26.00
2017-12-29T08:43:54.656Z,29.43
2017-12-29T08:46:23.547Z,25.50
2017-12-29T08:48:52.673Z,27.17
2017-12-29T08:51:21.789Z,28.53
2017-12-29T08:53:50.697Z,33.30
2017-12-29T08:56:19.590Z,30.20
2017-12-29T08:58:48.505Z,33.13
2017-12-29T09:07:24.434Z,26.00
2017-12-29T09:09:53.335Z,24.23
2017-12-29T09:12:22.234Z,23.63
2017-12-29T09:14:51.139Z,23.43
2017-12-29T09:17:20.059Z,27.33
2017-12-29T09:19:49.137Z,25.17
2017-12-29T09:22:18.029Z,22.33
2017-12-29T09:24:46.932Z,20.17
2017-12-29T09:27:15.825Z,19.70
2017-12-29T09:29:45.763Z,21.37
2017-12-29T09:32:14.643Z,21.97
2017-12-29T09:34:43.541Z,20.83
2017-12-29T09:37:13.216Z,19.47
2017-12-29T09:39:42.114Z,21.47
2017-12-29T09:42:11.035Z,21.73
2017-12-29T09:44:40.114Z,20.27
2017-12-29T09:47:08.990Z,18.33
2017-12-29T09:49:37.888Z,20.83
2017-12-29T09:52:06.785Z,20.67
2017-12-29T09:54:35.772Z,22.03
2017-12-29T09:57:04.681Z,20.07
2017-12-29T09:59:33.588Z,20.43
2017-12-29T10:02:02.476Z,18.60
2017-12-29T10:11:15.866Z,16.97
2017-12-29T10:19:45.485Z,20.00
2017-12-29T10:22:14.400Z,17.93
2017-12-29T10:24:43.510Z,20.03
2017-12-29T10:27:13.303Z,18.33
2017-12-29T10:29:42.829Z,21.67
2017-12-29T10:32:11.722Z,15.60
2017-12-29T10:34:40.629Z,14.23
2017-12-29T10:37:18.982Z,16.17
2017-12-29T10:45:44.546Z,13.83
2017-12-29T10:48:13.452Z,17.53
2017-12-29T10:50:42.336Z,15.50
2017-12-29T10:53:11.221Z,11.90
2017-12-29T10:55:40.143Z,13.00
2017-12-29T10:58:09.023Z,11.23
2017-12-29T11:00:37.922Z,12.43
2017-12-29T11:03:06.822Z,12.50
2017-12-29T11:14:29.972Z,14.93
2017-12-29T11:17:02.859Z,12.13
2017-12-29T11:19:32.500Z,14.23
2017-12-29T11:22:02.047Z,14.33
2017-12-29T11:24:30.940Z,9.60
2017-12-29T11:26:59.852Z,10.83
2017-12-29T11:29:28.728Z,10.97
2017-12-29T11:31:57.620Z,11.17
2017-12-29T11:40:25.944Z,13.23
2017-12-29T11:42:54.898Z,13.73
2017-12-29T11:45:23.808Z,12.47
2017-12-29T11:47:53.678Z,16.80
2017-12-29T11:50:22.382Z,13.70
2017-12-29T11:52:51.302Z,14.57
2017-12-29T11:55:20.195Z,13.17
2017-12-29T11:57:49.072Z,11.20
2017-12-29T12:00:17.998Z,11.10
2017-12-29T12:20:46.591Z,10.40
2017-12-29T12:23:15.485Z,11.10
2017-12-29T12:25:44.578Z,10.57
2017-12-29T12:28:13.490Z,11.10
2017-12-29T12:30:42.373Z,13.23
2017-12-29T12:33:11.279Z,12.77
2017-12-29T12:35:40.150Z,14.00
2017-12-29T12:38:09.054Z,14.13
2017-12-29T12:40:38.166Z,11.17
2017-12-29T13:01:07.749Z,8.67
2017-12-29T13:03:39.830Z,8.67
2017-12-29T13:06:09.462Z,8.87
2017-12-29T13:08:38.355Z,8.40
2017-12-29T13:11:07.493Z,8.57
2017-12-29T13:13:36.422Z,7.77
2017-12-29T13:16:05.299Z,7.27
2017-12-29T13:18:34.178Z,6.57
2017-12-29T13:21:03.071Z,7.63
2017-12-29T13:41:28.789Z,9.60
2017-12-29T13:43:57.660Z,6.83
2017-12-29T13:46:26.579Z,6.67
2017-12-29T13:48:55.503Z,8.67
2017-12-29T13:51:24.394Z,5.87
2017-12-29T13:53:53.613Z,9.20
2017-12-29T13:56:22.498Z,6.90
2017-12-29T13:58:51.395Z,6.47
2017-12-29T14:19:22.059Z,6.80
2017-12-29T14:21:48.777Z,7.10
2017-12-29T14:24:18.551Z,6.33
2017-12-29T14:26:44.722Z,7.00
2017-12-29T14:29:10.950Z,6.80
2017-12-29T14:31:37.905Z,6.17
2017-12-29T14:34:04.097Z,8.03
2017-12-29T14:36:30.325Z,7.80
2017-12-29T14:41:51.355Z,7.10
2017-12-29T14:44:17.568Z,7.40
2017-12-29T14:46:43.790Z,7.33
2017-12-29T14:49:09.967Z,7.10
2017-12-29T14:51:36.195Z,6.50
2017-12-29T14:54:02.386Z,7.13
2017-12-29T14:56:28.614Z,11.97
2017-12-29T14:58:54.827Z,7.23
2017-12-29T15:10:21.633Z,6.77
2017-12-29T15:12:47.873Z,7.37
2017-12-29T15:15:14.125Z,7.13
2017-12-29T15:17:40.311Z,7.13
2017-12-29T15:20:06.469Z,7.37
2017-12-29T15:22:32.666Z,7.33
2017-12-29T15:24:58.824Z,6.23
2017-12-29T15:27:25.044Z,7.47
2017-12-29T15:29:51.209Z,7.27
2017-12-29T15:32:17.374Z,7.40
2017-12-29T15:34:44.281Z,7.37
2017-12-29T15:37:10.489Z,8.10
2017-12-29T15:39:36.666Z,7.40
2017-12-29T15:42:02.880Z,7.23
2017-12-29T15:47:22.375Z,7.40
2017-12-29T15:49:48.573Z,7.27
2017-12-29T15:52:14.829Z,7.57
2017-12-29T15:54:40.969Z,7.93
2017-12-29T15:57:07.180Z,7.33
2017-12-29T15:59:33.378Z,8.50
2017-12-29T16:02:01.443Z,8.10
2017-12-29T16:04:27.789Z,7.73
2017-12-29T16:07:00.648Z,8.30
2017-12-29T16:09:26.922Z,8.30
2017-12-29T16:11:53.193Z,9.47
2017-12-29T16:14:19.534Z,12.97
2017-12-29T16:16:45.921Z,9.57
2017-12-29T16:19:12.784Z,9.93
2017-12-29T16:21:40.116Z,10.80
2017-12-29T16:24:06.481Z,9.10
2017-12-29T16:26:32.815Z,9.40
2017-12-29T16:29:06.660Z,9.73
2017-12-29T16:31:33.077Z,8.30
2017-12-29T16:33:59.340Z,11.67
2017-12-29T16:36:25.665Z,8.77
2017-12-29T16:38:54.764Z,8.97
2017-12-29T16:41:21.091Z,10.00
2017-12-29T16:43:47.575Z,10.67
2017-12-29T16:46:13.916Z,11.37
2017-12-29T16:48:40.239Z,10.13
2017-12-29T16:51:07.392Z,10.23
2017-12-29T16:53:34.088Z,10.57
2017-12-29T16:56:00.392Z,10.43
2017-12-29T16:58:26.657Z,10.50
2017-12-29T17:00:52.981Z,9.77
2017-12-29T17:03:19.269Z,9.70
2017-12-29T17:05:45.642Z,9.87
2017-12-29T17:08:12.201Z,9.70
2017-12-29T17:10:38.439Z,10.77
2017-12-29T17:13:04.658Z,9.93
2017-12-29T17:15:30.903Z,9.87
2017-12-29T17:17:57.108Z,13.23
2017-12-29T17:20:23.414Z,11.50
2017-12-29T17:22:49.816Z,10.47
2017-12-29T17:25:16.084Z,12.60
2017-12-29T17:27:42.328Z,12.00
2017-12-29T17:39:03.006Z,10.00
2017-12-29T17:41:29.222Z,12.90
2017-12-29T17:43:55.427Z,10.00
2017-12-29T17:46:21.699Z,11.93
2017-12-29T17:48:47.930Z,10.47
2017-12-29T17:51:14.181Z,9.60
2017-12-29T17:53:40.455Z,15.77
2017-12-29T17:56:06.704Z,9.73
2017-12-29T17:58:33.012Z,18.00
2017-12-29T18:00:59.265Z,10.87
2017-12-29T18:03:25.495Z,8.27
2017-12-29T18:05:51.793Z,15.87
2017-12-29T18:08:18.107Z,8.07
2017-12-29T18:10:45.152Z,15.63
2017-12-29T18:13:13.255Z,10.47
2017-12-29T18:15:39.482Z,14.83
2017-12-29T18:18:05.646Z,7.30
2017-12-29T18:20:34.597Z,10.90
2017-12-29T18:23:00.838Z,9.07
2017-12-29T18:25:27.103Z,7.53
2017-12-29T18:27:53.329Z,8.87
2017-12-29T18:30:19.489Z,10.23
2017-12-29T18:32:45.691Z,6.10
2017-12-29T18:38:06.625Z,10.73
2017-12-29T18:40:32.825Z,13.20
2017-12-29T18:42:59.007Z,14.80
2017-12-29T18:45:25.247Z,11.23
2017-12-29T18:47:51.425Z,9.10
2017-12-29T18:50:17.628Z,9.20
2017-12-29T18:52:43.818Z,9.37
2017-12-29T18:55:10.005Z,11.57
2017-12-29T18:57:37.002Z,9.07
2017-12-29T19:00:03.231Z,10.60
2017-12-29T19:02:29.671Z,12.97
2017-12-29T19:04:55.971Z,16.37
2017-12-29T19:07:22.956Z,9.53
2017-12-29T19:09:49.118Z,9.87
2017-12-29T19:12:15.267Z,8.53
2017-12-29T19:14:41.430Z,8.40
2017-12-29T19:17:07.637Z,10.20
2017-12-29T19:22:27.694Z,11.90
2017-12-29T19:24:53.885Z,6.73
2017-12-29T19:27:20.082Z,7.87
2017-12-29T19:29:46.247Z,5.47
2017-12-29T19:32:12.429Z,6.13
2017-12-29T19:34:38.590Z,5.97
2017-12-29T19:37:04.786Z,13.57
2017-12-29T19:39:30.995Z,8.43
2017-12-29T19:45:18.572Z,7.63
2017-12-29T19:47:44.763Z,8.70
2017-12-29T19:50:10.899Z,10.37
2017-12-29T19:52:37.074Z,5.03
2017-12-29T19:55:03.213Z,7.30
2017-12-29T19:57:29.415Z,9.37
2017-12-29T19:59:55.607Z,7.20
2017-12-29T20:02:21.765Z,7.30
2017-12-29T20:04:48.675Z,9.73
2017-12-29T20:10:15.203Z,10.30
2017-12-29T20:12:41.370Z,6.00
2017-12-29T20:15:07.560Z,7.10
2017-12-29T20:17:33.781Z,9.00
2017-12-29T20:19:59.965Z,8.73
2017-12-29T20:22:26.209Z,7.93
2017-12-29T20:24:52.514Z,14.13
2017-12-29T20:27:18.683Z,8.97
2017-12-29T20:29:44.904Z,14.60
2017-12-29T20:32:11.241Z,13.60
2017-12-29T20:34:38.218Z,12.37
2017-12-29T20:37:04.467Z,8.70
2017-12-29T20:39:30.744Z,17.70
2017-12-29T20:41:57.016Z,19.37
2017-12-29T20:44:23.233Z,7.43
2017-12-29T20:46:49.459Z,8.00
2017-12-29T20:52:08.800Z,16.03
2017-12-29T20:54:34.999Z,10.07
2017-12-29T20:57:01.184Z,17.67
2017-12-29T20:59:27.399Z,12.37
2017-12-29T21:01:53.621Z,7.87
2017-12-29T21:04:19.862Z,17.73
2017-12-29T21:06:46.098Z,19.67
2017-12-29T21:09:12.293Z,11.80
2017-12-29T21:11:38.573Z,15.93
2017-12-29T21:14:04.812Z,16.27
2017-12-29T21:16:31.052Z,13.33
2017-12-29T21:18:57.249Z,16.77
2017-12-29T21:21:24.158Z,14.23
2017-12-29T21:23:50.399Z,13.00
2017-12-29T21:26:16.628Z,18.57
2017-12-29T21:28:46.431Z,15.30
2017-12-29T21:31:12.648Z,22.03
2017-12-29T21:33:38.870Z,15.90
2017-12-29T21:36:05.072Z,16.27
2017-12-29T21:38:31.318Z,19.47
2017-12-29T21:40:58.172Z,19.50
2017-12-29T21:43:24.563Z,20.93
2017-12-29T21:45:50.777Z,12.67
2017-12-29T21:48:17.006Z,17.00
2017-12-29T22:11:41.168Z,12.23
2017-12-29T22:14:08.133Z,15.67
2017-12-29T22:16:34.378Z,14.40
2017-12-29T22:19:01.333Z,15.40
2017-12-29T22:21:31.216Z,15.40
2017-12-29T22:23:58.138Z,18.20
2017-12-29T22:26:24.325Z,17.90
2017-12-29T22:28:50.562Z,17.37
2017-12-29T22:31:17.471Z,15.50
2017-12-29T22:39:37.296Z,21.23
2017-12-29T22:42:03.465Z,19.87
2017-12-29T22:44:29.686Z,8.90
2017-12-29T22:46:56.598Z,14.43
2017-12-29T22:49:22.852Z,12.90
2017-12-29T22:51:49.095Z,16.33
2017-12-29T22:54:15.277Z,24.53
2017-12-29T22:56:41.450Z,18.90
2017-12-29T23:02:01.952Z,17.17
2017-12-29T23:04:28.189Z,16.13
2017-12-29T23:06:55.124Z,17.60
2017-12-29T23:09:21.311Z,18.37
2017-12-29T23:11:47.549Z,13.47
2017-12-29T23:14:13.773Z,17.33
2017-12-29T23:16:40.010Z,18.77
2017-12-29T23:19:06.779Z,18.90
2017-12-29T23:48:47.465Z,12.80
2017-12-29T23:51:13.765Z,17.93
2017-12-29T23:53:39.984Z,19.33
2017-12-29T23:56:06.237Z,18.47
2017-12-29T23:58:32.448Z,24.27
